createdAt,value
2019-05-07T15:45:23.780Z,15.93
2019-05-07T15:50:32.042Z,15.05
2019-05-07T15:53:15.567Z,16.17
2019-05-07T15:55:47.876Z,16.85
2019-05-07T15:58:19.838Z,16.60
2019-05-07T16:00:52.361Z,15.50
2019-05-07T16:03:29.714Z,15.65
2019-05-07T16:06:03.776Z,15.53
2019-05-07T16:08:42.403Z,16.32
2019-05-07T16:11:14.466Z,16.40
2019-05-07T16:13:52.457Z,15.60
2019-05-07T16:16:24.936Z,15.20
2019-05-07T16:21:46.401Z,14.38
2019-05-07T16:24:20.076Z,13.62
2019-05-07T16:26:52.472Z,13.32
2019-05-07T16:29:24.566Z,12.95
2019-05-07T16:32:02.260Z,12.37
2019-05-07T16:34:34.307Z,12.88
2019-05-07T16:37:07.606Z,12.10
2019-05-07T16:39:41.989Z,11.83
2019-05-07T16:42:13.598Z,12.10
2019-05-07T16:44:46.022Z,11.40
2019-05-07T16:49:48.391Z,10.80
2019-05-07T16:54:52.341Z,11.83
2019-05-07T16:57:35.726Z,11.22
2019-05-07T17:00:08.513Z,10.85
2019-05-07T17:02:44.317Z,10.45
2019-05-07T17:05:16.691Z,11.10
2019-05-07T17:08:15.425Z,9.83
2019-05-07T17:10:48.910Z,9.75
2019-05-07T17:13:21.008Z,9.50
2019-05-07T17:15:59.686Z,8.73
2019-05-07T17:18:32.627Z,8.68
2019-05-07T17:21:05.571Z,9.30
2019-05-07T17:23:44.164Z,9.85
2019-05-07T17:26:16.010Z,9.65
2019-05-07T17:28:52.129Z,9.90
2019-05-07T17:31:25.865Z,9.55
2019-05-07T17:33:57.896Z,9.58
2019-05-07T17:36:33.035Z,9.30
2019-05-07T17:39:06.748Z,9.55
2019-05-07T17:41:39.307Z,8.75
2019-05-07T17:44:11.879Z,8.55
2019-05-07T17:46:46.119Z,8.93
2019-05-07T17:49:17.719Z,7.85
2019-05-07T17:51:49.768Z,8.48
2019-05-07T17:56:53.838Z,7.55
2019-05-07T17:59:26.038Z,7.42
2019-05-07T18:02:21.881Z,7.17
2019-05-07T18:04:54.624Z,7.33
2019-05-07T18:07:27.165Z,7.40
2019-05-07T18:09:59.293Z,7.45
2019-05-07T18:12:32.087Z,7.05
2019-05-07T18:15:04.460Z,7.67
2019-05-07T18:20:27.084Z,7.25
2019-05-07T18:22:59.424Z,7.37
2019-05-07T18:25:32.386Z,6.50
2019-05-07T18:28:04.783Z,6.75
2019-05-07T18:30:36.964Z,6.80
2019-05-07T18:33:46.346Z,7.45
2019-05-07T18:36:18.597Z,6.75
2019-05-07T18:38:52.700Z,6.85
2019-05-07T18:41:24.406Z,6.70
2019-05-07T18:44:09.058Z,6.90
2019-05-07T18:46:30.243Z,7.22
2019-05-07T18:49:03.390Z,6.83
2019-05-07T18:51:35.623Z,6.15
2019-05-07T18:54:07.685Z,6.40
2019-05-07T18:56:41.901Z,6.55
2019-05-07T18:59:13.613Z,6.58
2019-05-07T19:04:16.143Z,6.47
2019-05-07T19:06:48.099Z,6.12
2019-05-07T19:09:22.322Z,6.37
2019-05-07T19:11:53.859Z,6.28
2019-05-07T19:14:25.864Z,6.53
2019-05-07T19:16:58.190Z,7.22
2019-05-07T19:19:32.636Z,6.40
2019-05-07T19:22:03.770Z,7.10
2019-05-07T19:24:45.205Z,6.72
2019-05-07T19:27:12.748Z,6.97
2019-05-07T19:32:16.497Z,6.03
2019-05-07T19:34:48.762Z,6.50
2019-05-07T19:37:22.357Z,6.30
2019-05-07T19:39:54.221Z,6.55
2019-05-07T19:42:26.195Z,6.20
2019-05-07T19:44:58.384Z,6.40
2019-05-07T19:47:32.659Z,6.45
2019-05-07T19:50:04.277Z,6.55
2019-05-07T19:52:36.204Z,6.67
2019-05-07T19:55:08.322Z,6.60
2019-05-07T19:57:48.861Z,6.67
2019-05-07T20:00:22.975Z,6.17
2019-05-07T20:02:56.646Z,6.22
2019-05-07T20:05:28.730Z,6.60
2019-05-07T20:08:04.474Z,6.75
2019-05-07T20:10:45.957Z,5.78
2019-05-07T20:13:18.100Z,6.35
2019-05-07T20:15:54.799Z,6.35
2019-05-07T20:18:26.973Z,6.33
2019-05-07T20:20:59.153Z,6.30
2019-05-07T20:23:32.351Z,6.47
2019-05-07T20:26:04.915Z,6.17
2019-05-07T20:28:37.051Z,5.87
2019-05-07T20:31:09.136Z,5.67
2019-05-07T20:33:42.166Z,5.70
2019-05-07T20:36:14.602Z,5.67
2019-05-07T20:38:46.743Z,5.62
2019-05-07T20:41:18.916Z,5.92
2019-05-07T20:43:52.343Z,6.33
2019-05-07T20:46:24.676Z,6.20
2019-05-07T20:48:56.900Z,6.70
2019-05-07T20:51:29.069Z,5.83
2019-05-07T20:54:19.718Z,5.42
2019-05-07T20:56:57.654Z,5.83
2019-05-07T20:59:29.811Z,6.00
2019-05-07T21:02:02.293Z,5.70
2019-05-07T21:04:35.647Z,5.95
2019-05-07T21:07:07.805Z,5.95
2019-05-07T21:09:42.108Z,5.55
2019-05-07T21:12:13.594Z,5.40
2019-05-07T21:14:45.799Z,5.55
2019-05-07T21:17:18.105Z,5.62
2019-05-07T21:19:50.492Z,5.30
2019-05-07T21:24:54.014Z,5.80
2019-05-07T21:27:26.172Z,5.25
2019-05-07T21:29:58.294Z,5.30
2019-05-07T21:32:32.397Z,5.58
2019-05-07T21:35:03.789Z,5.20
2019-05-07T21:37:35.822Z,5.95
2019-05-07T21:40:08.062Z,5.20
2019-05-07T21:42:42.062Z,5.45
2019-05-07T21:45:13.851Z,5.75
2019-05-07T21:47:45.785Z,5.40
2019-05-07T21:50:17.753Z,5.25
2019-05-07T21:52:54.888Z,5.33
2019-05-07T21:55:39.592Z,5.00
2019-05-07T21:58:28.866Z,5.35
2019-05-07T22:01:07.379Z,5.42
2019-05-07T22:03:43.145Z,5.08
2019-05-07T22:06:15.982Z,5.08
2019-05-07T22:08:48.192Z,5.50
2019-05-07T22:11:22.800Z,4.85
2019-05-07T22:13:54.903Z,5.58
2019-05-07T22:16:27.343Z,4.47
2019-05-07T22:18:59.495Z,4.78
2019-05-07T22:21:33.922Z,4.72
2019-05-07T22:24:05.274Z,4.83
2019-05-07T22:26:37.443Z,4.95
2019-05-07T22:29:12.315Z,5.10
2019-05-07T22:32:09.222Z,4.95
2019-05-07T22:34:55.576Z,4.92
2019-05-07T22:37:29.172Z,5.12
2019-05-07T22:40:05.964Z,5.10
2019-05-07T22:42:39.400Z,4.35
2019-05-07T22:45:12.260Z,5.00
2019-05-07T22:47:44.509Z,4.95
2019-05-07T22:50:16.574Z,5.17
2019-05-07T22:52:49.105Z,5.10
2019-05-07T22:55:21.842Z,4.97
2019-05-07T22:58:02.511Z,4.40
2019-05-07T23:00:37.494Z,4.72
2019-05-07T23:03:12.081Z,4.30
2019-05-07T23:05:44.829Z,5.00
2019-05-07T23:08:17.295Z,5.17
2019-05-07T23:10:49.420Z,4.95
2019-05-07T23:13:22.660Z,4.67
2019-05-07T23:15:55.003Z,5.08
2019-05-07T23:18:27.090Z,5.22
2019-05-07T23:20:59.301Z,4.75
2019-05-07T23:23:32.567Z,4.62
2019-05-07T23:26:04.642Z,4.50
2019-05-07T23:28:36.610Z,4.67
2019-05-07T23:31:08.612Z,4.62
2019-05-07T23:33:40.760Z,5.00
2019-05-07T23:36:13.059Z,4.75
2019-05-07T23:38:45.784Z,4.90
2019-05-07T23:41:36.002Z,4.37
2019-05-07T23:44:15.873Z,4.72
2019-05-07T23:46:48.086Z,4.78
2019-05-07T23:49:19.913Z,4.65
2019-05-07T23:51:53.056Z,4.97
2019-05-07T23:54:25.324Z,4.37
2019-05-07T23:57:06.015Z,4.85
2019-05-07T23:59:32.679Z,4.72
